Time;durP1;ratioP1;P1;durP2;ratioP2;P2;SDS_P1;SDS_P2;PMS_P1;PMS_P2;Temp;Humidity;BMP_temperature;BMP_pressure;BME280_temperature;BME280_humidity;BME280_pressure;Samples;Min_cycle;Max_cycle;Signal;HPM_P1;HPM_P2
2020/12/16 00:00:31;;;;;;;0.20;0.20;;;;;;;;;;5124216;28;20000;-82
2020/12/16 00:02:57;;;;;;;0.20;0.20;;;;;;;;;;5138386;28;20046;-81
2020/12/16 00:05:22;;;;;;;0.20;0.20;;;;;;;;;;5122983;28;20043;-81
2020/12/16 00:07:52;;;;;;;0.10;0.10;;;;;;;;;;5139830;28;20079;-81
2020/12/16 00:10:18;;;;;;;0.17;0.17;;;;;;;;;;5123247;28;20008;-81
2020/12/16 00:12:43;;;;;;;0.20;0.20;;;;;;;;;;5122484;28;20420;-82
2020/12/16 00:15:09;;;;;;;0.20;0.20;;;;;;;;;;5122587;28;20038;-84
2020/12/16 00:17:36;;;;;;;0.20;0.20;;;;;;;;;;5122615;28;20023;-83
2020/12/16 00:20:02;;;;;;;0.13;0.13;;;;;;;;;;5122920;28;20012;-83
2020/12/16 00:22:38;;;;;;;0.20;0.20;;;;;;;;;;5139213;28;20737;-82
2020/12/16 00:25:14;;;;;;;0.20;0.20;;;;;;;;;;5121949;28;20015;-82
2020/12/16 00:27:42;;;;;;;0.20;0.20;;;;;;;;;;5119545;28;20020;-81
2020/12/16 00:30:10;;;;;;;0.28;0.20;;;;;;;;;;5118609;28;20016;-80
2020/12/16 00:32:36;;;;;;;0.20;0.20;;;;;;;;;;5114277;28;20044;-81
2020/12/16 00:35:04;;;;;;;0.20;0.20;;;;;;;;;;5135514;28;20040;-82
2020/12/16 00:37:32;;;;;;;0.30;0.30;;;;;;;;;;5118206;28;20082;-81
2020/12/16 00:39:58;;;;;;;0.20;0.20;;;;;;;;;;5102328;28;20139;-82
2020/12/16 00:42:23;;;;;;;0.20;0.20;;;;;;;;;;5118550;28;20016;-82
2020/12/16 00:44:48;;;;;;;0.20;0.20;;;;;;;;;;5117258;28;20040;-79
2020/12/16 00:47:14;;;;;;;0.20;0.20;;;;;;;;;;5111849;28;20031;-79
2020/12/16 00:49:41;;;;;;;0.20;0.20;;;;;;;;;;5103752;28;20058;-78
2020/12/16 00:52:06;;;;;;;0.20;0.20;;;;;;;;;;5084102;28;20035;-78
2020/12/16 00:54:31;;;;;;;0.17;0.17;;;;;;;;;;5100769;28;20444;-79
2020/12/16 00:56:57;;;;;;;0.10;0.10;;;;;;;;;;5084204;28;20103;-78
2020/12/16 00:59:22;;;;;;;0.20;0.20;;;;;;;;;;5090377;28;20032;-80
2020/12/16 01:01:48;;;;;;;0.20;0.20;;;;;;;;;;5083483;28;20062;-78
2020/12/16 01:04:14;;;;;;;0.10;0.10;;;;;;;;;;5080349;28;20036;-79
2020/12/16 01:06:39;;;;;;;0.30;0.30;;;;;;;;;;5088682;28;20028;-80
2020/12/16 01:09:05;;;;;;;0.20;0.20;;;;;;;;;;5106101;28;20054;-79
2020/12/16 01:11:33;;;;;;;0.10;0.10;;;;;;;;;;5111029;28;20032;-79
2020/12/16 01:13:58;;;;;;;0.20;0.20;;;;;;;;;;5108152;28;20123;-79
2020/12/16 01:16:23;;;;;;;0.10;0.10;;;;;;;;;;5097140;28;20097;-78
2020/12/16 01:18:48;;;;;;;0.15;0.15;;;;;;;;;;5098363;28;20101;-78
2020/12/16 01:21:14;;;;;;;0.20;0.20;;;;;;;;;;5103231;28;20121;-79
2020/12/16 01:23:39;;;;;;;0.20;0.20;;;;;;;;;;5106376;28;20050;-80
2020/12/16 01:26:05;;;;;;;0.15;0.10;;;;;;;;;;5111001;28;20035;-80
2020/12/16 01:28:30;;;;;;;0.30;0.20;;;;;;;;;;5114890;28;20016;-80
2020/12/16 01:31:01;;;;;;;0.20;0.20;;;;;;;;;;5117505;28;20055;-80
2020/12/16 01:33:26;;;;;;;0.25;0.25;;;;;;;;;;5101252;28;20051;-80
2020/12/16 01:35:51;;;;;;;0.20;0.20;;;;;;;;;;5131088;28;20023;-81
2020/12/16 01:41:05;;;;;;;0.20;0.20;;;;;;;;;;5628076;22;19971;-82
2020/12/16 01:43:37;;;;;;;0.20;0.20;;;;;;;;;;5044275;28;20045;-84
2020/12/16 01:46:03;;;;;;;0.45;0.35;;;;;;;;;;5044043;28;20025;-80
2020/12/16 01:48:28;;;;;;;0.20;0.20;;;;;;;;;;5060114;28;20039;-81
2020/12/16 01:50:54;;;;;;;0.30;0.30;;;;;;;;;;5058642;28;20036;-82
2020/12/16 01:53:19;;;;;;;0.20;0.20;;;;;;;;;;5058629;28;20025;-82
2020/12/16 01:55:45;;;;;;;0.17;0.17;;;;;;;;;;5058880;28;20021;-82
2020/12/16 01:58:10;;;;;;;0.20;0.20;;;;;;;;;;5038993;28;20029;-81
2020/12/16 02:00:35;;;;;;;0.10;0.10;;;;;;;;;;5022668;28;20024;-81
2020/12/16 02:03:01;;;;;;;0.20;0.20;;;;;;;;;;5058640;28;20088;-80
2020/12/16 02:05:28;;;;;;;0.30;0.30;;;;;;;;;;5058915;28;20017;-83
2020/12/16 02:07:55;;;;;;;0.20;0.20;;;;;;;;;;5042053;28;20327;-81
2020/12/16 02:10:20;;;;;;;0.70;0.40;;;;;;;;;;5036008;28;20016;-83
2020/12/16 02:12:46;;;;;;;0.10;0.10;;;;;;;;;;5042173;28;20025;-82
2020/12/16 02:15:11;;;;;;;0.20;0.20;;;;;;;;;;5041993;28;20041;-82
2020/12/16 02:17:36;;;;;;;0.10;0.10;;;;;;;;;;5041907;28;20033;-82
2020/12/16 02:20:08;;;;;;;0.47;0.30;;;;;;;;;;5042093;28;20021;-82
2020/12/16 02:22:36;;;;;;;0.20;0.20;;;;;;;;;;5042583;28;20025;-81
2020/12/16 02:25:01;;;;;;;0.20;0.20;;;;;;;;;;5042038;28;20047;-84
2020/12/16 02:27:27;;;;;;;0.20;0.20;;;;;;;;;;5062714;28;20025;-82
2020/12/16 02:29:52;;;;;;;0.30;0.30;;;;;;;;;;5045910;28;20008;-87
2020/12/16 02:32:18;;;;;;;0.17;0.17;;;;;;;;;;5045703;28;20028;-82
2020/12/16 02:34:44;;;;;;;0.20;0.20;;;;;;;;;;5062964;28;20020;-82
2020/12/16 02:37:09;;;;;;;0.10;0.10;;;;;;;;;;5063773;28;20017;-81
2020/12/16 02:39:34;;;;;;;0.20;0.20;;;;;;;;;;5044064;28;20091;-82
2020/12/16 02:42:00;;;;;;;0.10;0.10;;;;;;;;;;5057711;28;20025;-82
2020/12/16 02:44:31;;;;;;;0.10;0.10;;;;;;;;;;5063307;28;20041;-82
2020/12/16 02:46:57;;;;;;;0.20;0.20;;;;;;;;;;5064241;28;20025;-82
2020/12/16 02:49:25;;;;;;;0.20;0.20;;;;;;;;;;5079899;28;20040;-82
2020/12/16 02:51:51;;;;;;;0.20;0.20;;;;;;;;;;5077434;28;20050;-82
2020/12/16 02:54:16;;;;;;;0.10;0.10;;;;;;;;;;5061608;28;20099;-82
2020/12/16 02:56:46;;;;;;;0.10;0.10;;;;;;;;;;5080733;28;20036;-82
2020/12/16 02:59:12;;;;;;;0.10;0.10;;;;;;;;;;5043724;28;20018;-82
2020/12/16 03:01:37;;;;;;;0.10;0.10;;;;;;;;;;5060211;28;20026;-81
2020/12/16 03:04:03;;;;;;;0.20;0.20;;;;;;;;;;5043672;28;20025;-82
2020/12/16 03:06:28;;;;;;;0.22;0.20;;;;;;;;;;5043237;28;20030;-82
2020/12/16 03:08:54;;;;;;;0.20;0.20;;;;;;;;;;5068778;28;20033;-81
2020/12/16 03:11:19;;;;;;;0.28;0.28;;;;;;;;;;5063319;28;20049;-81
2020/12/16 03:13:45;;;;;;;0.40;0.32;;;;;;;;;;5063097;28;20059;-80
2020/12/16 03:16:16;;;;;;;0.30;0.30;;;;;;;;;;5063306;28;20033;-81
2020/12/16 03:18:44;;;;;;;0.90;0.50;;;;;;;;;;5063061;28;20036;-82
2020/12/16 03:21:09;;;;;;;0.20;0.20;;;;;;;;;;5079404;28;20016;-80
2020/12/16 03:23:35;;;;;;;0.20;0.20;;;;;;;;;;5068966;28;20049;-81
2020/12/16 03:26:03;;;;;;;0.20;0.20;;;;;;;;;;5043111;28;20124;-80
2020/12/16 03:28:31;;;;;;;0.13;0.13;;;;;;;;;;5043082;28;20016;-80
2020/12/16 03:30:58;;;;;;;0.20;0.20;;;;;;;;;;5062651;28;20017;-81
2020/12/16 03:33:24;;;;;;;0.15;0.15;;;;;;;;;;5079154;28;20013;-81
2020/12/16 03:35:49;;;;;;;0.20;0.20;;;;;;;;;;5079122;28;20012;-80
2020/12/16 03:38:14;;;;;;;0.40;0.32;;;;;;;;;;5079362;28;20080;-81
2020/12/16 03:40:40;;;;;;;0.20;0.20;;;;;;;;;;5069422;28;20045;-80
2020/12/16 03:43:08;;;;;;;0.20;0.20;;;;;;;;;;5057758;28;20037;-79
2020/12/16 03:45:33;;;;;;;0.20;0.20;;;;;;;;;;5064410;28;20073;-79
2020/12/16 03:47:59;;;;;;;0.20;0.20;;;;;;;;;;5061619;28;20040;-80
2020/12/16 03:50:24;;;;;;;0.20;0.20;;;;;;;;;;5077444;28;20180;-79
2020/12/16 03:52:50;;;;;;;0.20;0.20;;;;;;;;;;5058673;28;20040;-79
2020/12/16 03:55:16;;;;;;;0.13;0.13;;;;;;;;;;5075952;28;20048;-80
2020/12/16 03:57:41;;;;;;;0.20;0.20;;;;;;;;;;5075520;28;20045;-79
2020/12/16 04:00:10;;;;;;;0.10;0.10;;;;;;;;;;5058413;28;20041;-80
2020/12/16 04:02:38;;;;;;;0.20;0.20;;;;;;;;;;5058319;28;20064;-79
2020/12/16 04:05:07;;;;;;;0.25;0.20;;;;;;;;;;5057930;28;20035;-79
2020/12/16 04:07:32;;;;;;;0.20;0.20;;;;;;;;;;5074827;28;20048;-79
2020/12/16 04:09:58;;;;;;;0.20;0.20;;;;;;;;;;5057711;28;20041;-79
2020/12/16 04:12:25;;;;;;;0.20;0.20;;;;;;;;;;5057456;28;20013;-79
2020/12/16 04:14:51;;;;;;;0.30;0.20;;;;;;;;;;5071156;28;20043;-79
2020/12/16 04:17:16;;;;;;;0.10;0.10;;;;;;;;;;5065944;28;20037;-80
2020/12/16 04:19:42;;;;;;;0.20;0.20;;;;;;;;;;5072355;28;20052;-79
2020/12/16 04:22:08;;;;;;;0.10;0.10;;;;;;;;;;5062468;28;20063;-80
2020/12/16 04:24:33;;;;;;;0.10;0.10;;;;;;;;;;5058275;28;20085;-79
2020/12/16 04:26:59;;;;;;;0.10;0.10;;;;;;;;;;5054449;28;20033;-80
2020/12/16 04:29:27;;;;;;;0.20;0.20;;;;;;;;;;5054239;28;20088;-80
2020/12/16 04:31:53;;;;;;;0.10;0.10;;;;;;;;;;5039089;28;20029;-80
2020/12/16 04:34:18;;;;;;;0.10;0.10;;;;;;;;;;5075012;28;20020;-80
2020/12/16 04:36:47;;;;;;;0.10;0.10;;;;;;;;;;5074184;28;20017;-79
2020/12/16 04:39:16;;;;;;;0.15;0.15;;;;;;;;;;5054643;28;20036;-80
2020/12/16 04:41:41;;;;;;;0.10;0.10;;;;;;;;;;5038165;28;20046;-80
2020/12/16 04:44:07;;;;;;;0.10;0.10;;;;;;;;;;5073770;28;20044;-80
2020/12/16 04:46:32;;;;;;;0.22;0.22;;;;;;;;;;5058760;28;20033;-81
2020/12/16 04:48:58;;;;;;;0.32;0.30;;;;;;;;;;5040859;28;20021;-81
2020/12/16 04:51:23;;;;;;;0.20;0.20;;;;;;;;;;5057784;28;20060;-81
2020/12/16 04:53:49;;;;;;;0.20;0.20;;;;;;;;;;5073852;28;20068;-80
2020/12/16 04:56:14;;;;;;;0.40;0.40;;;;;;;;;;5077666;28;20009;-80
2020/12/16 04:58:40;;;;;;;0.10;0.10;;;;;;;;;;5061049;28;20049;-80
2020/12/16 05:01:05;;;;;;;0.10;0.10;;;;;;;;;;5061194;28;20009;-80
2020/12/16 05:03:31;;;;;;;0.10;0.10;;;;;;;;;;5077521;28;20033;-82
2020/12/16 05:05:56;;;;;;;0.20;0.20;;;;;;;;;;5077749;28;20031;-82
2020/12/16 05:08:23;;;;;;;0.10;0.10;;;;;;;;;;5294414;22;20057;-80
2020/12/16 05:10:48;;;;;;;0.20;0.20;;;;;;;;;;5060997;28;20020;-80
2020/12/16 05:13:18;;;;;;;0.10;0.10;;;;;;;;;;5044803;28;20024;-81
2020/12/16 05:15:43;;;;;;;0.10;0.10;;;;;;;;;;5059153;28;20111;-82
2020/12/16 05:18:09;;;;;;;0.10;0.10;;;;;;;;;;5064533;28;20016;-81
2020/12/16 05:20:35;;;;;;;0.10;0.10;;;;;;;;;;5080852;28;20009;-80
2020/12/16 05:23:01;;;;;;;0.20;0.20;;;;;;;;;;5045346;28;20025;-81
2020/12/16 05:25:26;;;;;;;0.20;0.20;;;;;;;;;;5044654;28;20036;-81
2020/12/16 05:27:54;;;;;;;0.10;0.10;;;;;;;;;;5044442;28;20076;-81
2020/12/16 05:30:20;;;;;;;0.10;0.10;;;;;;;;;;5061111;28;20048;-81
2020/12/16 05:32:45;;;;;;;0.17;0.17;;;;;;;;;;5050544;28;20028;-80
2020/12/16 05:35:20;;;;;;;0.10;0.10;;;;;;;;;;5064242;28;20100;-79
2020/12/16 05:37:47;;;;;;;0.20;0.20;;;;;;;;;;5064673;28;20029;-81
2020/12/16 05:40:13;;;;;;;0.10;0.10;;;;;;;;;;5044668;28;20026;-81
2020/12/16 05:42:39;;;;;;;0.10;0.10;;;;;;;;;;5044620;28;20012;-81
2020/12/16 05:45:14;;;;;;;0.10;0.10;;;;;;;;;;5063918;28;20013;-81
2020/12/16 05:47:40;;;;;;;0.10;0.10;;;;;;;;;;5064392;28;20021;-81
2020/12/16 05:50:16;;;;;;;0.20;0.20;;;;;;;;;;5081006;28;20032;-81
2020/12/16 05:58:04;;;;;;;0.10;0.10;;;;;;;;;;5527457;22;20025;-80
2020/12/16 06:00:29;;;;;;;0.20;0.20;;;;;;;;;;5061751;28;20029;-81
2020/12/16 06:02:57;;;;;;;0.20;0.20;;;;;;;;;;5055441;28;20025;-80
2020/12/16 06:05:23;;;;;;;0.20;0.20;;;;;;;;;;5027580;28;20029;-81
2020/12/16 06:07:48;;;;;;;0.20;0.20;;;;;;;;;;5028222;28;20025;-80
2020/12/16 06:10:14;;;;;;;0.20;0.20;;;;;;;;;;5044626;28;20005;-81
2020/12/16 06:12:40;;;;;;;0.13;0.13;;;;;;;;;;5052866;28;20021;-82
2020/12/16 06:15:06;;;;;;;0.20;0.20;;;;;;;;;;5047432;28;20044;-83
2020/12/16 06:17:36;;;;;;;0.10;0.10;;;;;;;;;;5056716;28;20040;-82
2020/12/16 06:20:04;;;;;;;0.10;0.10;;;;;;;;;;5027792;28;20021;-83
2020/12/16 06:22:32;;;;;;;0.10;0.10;;;;;;;;;;5047331;28;20029;-82
2020/12/16 06:24:57;;;;;;;0.10;0.10;;;;;;;;;;5057786;28;20057;-81
2020/12/16 06:27:25;;;;;;;0.10;0.10;;;;;;;;;;5027566;28;20034;-82
2020/12/16 06:29:51;;;;;;;0.20;0.20;;;;;;;;;;5043775;28;20029;-82
2020/12/16 06:32:23;;;;;;;0.10;0.10;;;;;;;;;;5047132;28;20073;-81
2020/12/16 06:34:49;;;;;;;0.10;0.10;;;;;;;;;;5044566;28;20009;-82
2020/12/16 06:37:15;;;;;;;0.10;0.10;;;;;;;;;;5047037;28;20467;-81
2020/12/16 06:39:40;;;;;;;0.10;0.10;;;;;;;;;;5064217;28;20005;-81
2020/12/16 06:42:06;;;;;;;0.10;0.10;;;;;;;;;;5064313;28;20064;-81
2020/12/16 06:44:31;;;;;;;0.20;0.20;;;;;;;;;;5056314;28;20044;-81
2020/12/16 06:46:57;;;;;;;0.10;0.10;;;;;;;;;;5054410;28;20061;-79
2020/12/16 06:49:22;;;;;;;0.20;0.20;;;;;;;;;;5027700;28;20021;-81
2020/12/16 06:51:48;;;;;;;0.10;0.10;;;;;;;;;;5572486;22;20041;-80
2020/12/16 06:54:14;;;;;;;0.20;0.20;;;;;;;;;;5051628;28;20033;-80
2020/12/16 06:56:39;;;;;;;0.10;0.10;;;;;;;;;;5060720;28;20033;-80
2020/12/16 06:59:05;;;;;;;0.10;0.10;;;;;;;;;;5061124;28;20025;-80
2020/12/16 07:01:30;;;;;;;0.10;0.10;;;;;;;;;;5069218;28;20052;-79
2020/12/16 07:03:56;;;;;;;0.10;0.10;;;;;;;;;;5048196;28;20056;-80
2020/12/16 07:06:27;;;;;;;0.10;0.10;;;;;;;;;;5041991;28;20033;-80
2020/12/16 07:09:11;;;;;;;0.10;0.10;;;;;;;;;;5057035;28;20060;-80
2020/12/16 07:11:46;;;;;;;0.20;0.20;;;;;;;;;;5056893;28;20029;-79
2020/12/16 07:14:15;;;;;;;0.20;0.20;;;;;;;;;;5052953;28;20077;-80
2020/12/16 07:16:40;;;;;;;0.20;0.20;;;;;;;;;;5041414;28;20069;-79
2020/12/16 07:19:06;;;;;;;0.20;0.20;;;;;;;;;;5058173;28;20041;-81
2020/12/16 07:21:31;;;;;;;0.20;0.20;;;;;;;;;;5047761;28;20044;-83
2020/12/16 07:23:57;;;;;;;0.20;0.20;;;;;;;;;;5062142;28;20029;-79
2020/12/16 07:26:35;;;;;;;0.10;0.10;;;;;;;;;;5075732;28;20053;-81
2020/12/16 07:29:17;;;;;;;0.20;0.20;;;;;;;;;;5061214;28;20033;-81
2020/12/16 07:31:52;;;;;;;0.20;0.20;;;;;;;;;;5078081;28;20106;-81
2020/12/16 07:34:17;;;;;;;0.20;0.20;;;;;;;;;;5057442;28;20052;-81
2020/12/16 07:36:42;;;;;;;0.10;0.10;;;;;;;;;;5054055;28;20443;-80
2020/12/16 07:39:08;;;;;;;0.13;0.13;;;;;;;;;;5037892;28;20005;-80
2020/12/16 07:41:35;;;;;;;0.10;0.10;;;;;;;;;;5069084;28;20060;-79
2020/12/16 07:44:01;;;;;;;0.20;0.20;;;;;;;;;;5047678;28;20025;-79
2020/12/16 07:46:26;;;;;;;0.10;0.10;;;;;;;;;;5051876;28;20025;-79
2020/12/16 07:48:59;;;;;;;0.20;0.20;;;;;;;;;;5044146;28;20039;-80
2020/12/16 07:51:25;;;;;;;0.10;0.10;;;;;;;;;;5051960;28;20033;-77
2020/12/16 07:53:50;;;;;;;0.10;0.10;;;;;;;;;;5074301;28;20037;-79
2020/12/16 07:56:17;;;;;;;0.10;0.10;;;;;;;;;;5065865;28;20033;-79
2020/12/16 07:58:42;;;;;;;0.10;0.10;;;;;;;;;;5065122;28;20047;-78
2020/12/16 08:01:11;;;;;;;0.10;0.10;;;;;;;;;;5040804;28;20029;-78
2020/12/16 08:03:37;;;;;;;0.10;0.10;;;;;;;;;;5049280;28;20021;-78
2020/12/16 08:06:03;;;;;;;0.10;0.10;;;;;;;;;;5044342;28;20052;-79
2020/12/16 08:08:29;;;;;;;0.10;0.10;;;;;;;;;;5049042;28;20017;-78
2020/12/16 08:10:54;;;;;;;0.10;0.10;;;;;;;;;;5059315;28;20029;-77
2020/12/16 08:13:20;;;;;;;0.10;0.10;;;;;;;;;;5056135;28;20009;-79
2020/12/16 08:15:46;;;;;;;0.20;0.20;;;;;;;;;;5044484;28;20036;-79
2020/12/16 08:18:11;;;;;;;0.20;0.20;;;;;;;;;;5071549;28;20096;-78
2020/12/16 08:20:36;;;;;;;0.20;0.20;;;;;;;;;;5049373;28;20032;-79
2020/12/16 08:23:01;;;;;;;0.10;0.10;;;;;;;;;;5065113;28;20024;-79
2020/12/16 08:25:27;;;;;;;0.13;0.13;;;;;;;;;;5045851;28;20033;-78
2020/12/16 08:27:56;;;;;;;0.10;0.10;;;;;;;;;;5056453;28;20009;-81
2020/12/16 08:30:22;;;;;;;0.10;0.10;;;;;;;;;;5075297;28;20044;-80
2020/12/16 08:33:03;;;;;;;0.13;0.13;;;;;;;;;;5040687;28;20381;-80
2020/12/16 08:35:30;;;;;;;0.20;0.20;;;;;;;;;;5051902;28;20038;-85
2020/12/16 08:37:58;;;;;;;0.10;0.10;;;;;;;;;;5053123;28;20097;-83
2020/12/16 08:40:23;;;;;;;0.10;0.10;;;;;;;;;;5062170;28;20087;-82
2020/12/16 08:42:48;;;;;;;0.10;0.10;;;;;;;;;;5065511;28;20312;-82
2020/12/16 08:45:16;;;;;;;0.10;0.10;;;;;;;;;;5052593;28;20060;-84
2020/12/16 08:47:41;;;;;;;0.10;0.10;;;;;;;;;;5069746;28;20001;-81
2020/12/16 08:50:11;;;;;;;0.10;0.10;;;;;;;;;;5066924;28;20039;-81
2020/12/16 08:52:40;;;;;;;0.10;0.10;;;;;;;;;;5037822;28;20402;-78
2020/12/16 08:55:13;;;;;;;0.15;0.15;;;;;;;;;;5060099;28;20047;-81
2020/12/16 08:57:48;;;;;;;0.10;0.10;;;;;;;;;;5064417;28;20001;-82
2020/12/16 09:00:14;;;;;;;0.10;0.10;;;;;;;;;;5064337;28;20014;-81
2020/12/16 09:02:41;;;;;;;0.10;0.10;;;;;;;;;;5057648;28;20056;-82
2020/12/16 09:05:07;;;;;;;0.10;0.10;;;;;;;;;;5050727;28;20076;-82
2020/12/16 09:07:35;;;;;;;0.10;0.10;;;;;;;;;;5062603;28;20040;-81
2020/12/16 09:10:09;;;;;;;0.10;0.10;;;;;;;;;;5049881;28;20104;-81
2020/12/16 09:12:42;;;;;;;0.10;0.10;;;;;;;;;;5066354;28;20461;-82
2020/12/16 09:15:27;;;;;;;0.10;0.10;;;;;;;;;;5050961;28;20025;-81
2020/12/16 09:18:14;;;;;;;0.10;0.10;;;;;;;;;;5061914;28;20009;-82
2020/12/16 09:20:48;;;;;;;0.10;0.10;;;;;;;;;;5063600;28;20041;-81
2020/12/16 09:26:23;;;;;;;0.10;0.10;;;;;;;;;;5074351;28;20021;-82
2020/12/16 09:29:04;;;;;;;0.10;0.10;;;;;;;;;;5049874;28;20033;-81
2020/12/16 09:31:30;;;;;;;0.10;0.10;;;;;;;;;;5055574;28;20040;-83
2020/12/16 09:34:07;;;;;;;0.10;0.10;;;;;;;;;;5054888;28;20085;-81
2020/12/16 09:36:40;;;;;;;0.10;0.10;;;;;;;;;;5056273;28;20053;-84
2020/12/16 09:39:29;;;;;;;0.10;0.10;;;;;;;;;;5040331;28;20014;-83
2020/12/16 09:42:07;;;;;;;;;;;;;;;;;;;;;
2020/12/16 09:44:41;;;;;;;0.10;0.10;;;;;;;;;;5055343;28;20037;-83
2020/12/16 09:47:39;;;;;;;0.10;0.10;;;;;;;;;;5039284;28;20060;-80
2020/12/16 09:50:06;;;;;;;0.10;0.10;;;;;;;;;;5046023;28;20021;-80
2020/12/16 09:52:37;;;;;;;0.30;0.10;;;;;;;;;;5054294;28;20088;-81
2020/12/16 09:55:06;;;;;;;;;;;;;;;;;;5022685;28;20057;-75
2020/12/16 09:57:31;;;;;;;;;;;;;;;;;;5031953;28;19912;-75
2020/12/16 09:59:57;;;;;;;0.10;0.10;;;;;;;;;;5033658;28;19906;-75
2020/12/16 10:02:22;;;;;;;0.10;0.10;;;;;;;;;;5031261;28;20076;-75
2020/12/16 10:04:51;;;;;;;0.10;0.10;;;;;;;;;;5031010;28;20025;-75
2020/12/16 10:07:17;;;;;;;0.10;0.10;;;;;;;;;;5031124;28;20033;-75
2020/12/16 10:09:52;;;;;;;0.10;0.10;;;;;;;;;;5031463;28;20037;-75
2020/12/16 10:12:17;;;;;;;0.10;0.10;;;;;;;;;;5049257;28;20033;-74
2020/12/16 10:14:42;;;;;;;0.10;0.10;;;;;;;;;;5043245;28;20283;-73
2020/12/16 10:17:08;;;;;;;0.10;0.10;;;;;;;;;;5051554;28;20021;-74
2020/12/16 10:19:33;;;;;;;0.10;0.10;;;;;;;;;;5053604;28;20045;-74
2020/12/16 10:21:59;;;;;;;0.10;0.10;;;;;;;;;;5034455;28;20043;-74
2020/12/16 10:24:25;;;;;;;0.10;0.10;;;;;;;;;;5051070;28;20068;-74
2020/12/16 10:26:50;;;;;;;0.10;0.10;;;;;;;;;;5051572;28;20121;-74
2020/12/16 10:29:16;;;;;;;0.10;0.10;;;;;;;;;;5034522;28;20036;-74
2020/12/16 10:31:45;;;;;;;0.10;0.10;;;;;;;;;;5031145;28;20291;-74
2020/12/16 10:34:11;;;;;;;0.10;0.10;;;;;;;;;;5051621;28;20424;-74
2020/12/16 10:36:36;;;;;;;0.10;0.10;;;;;;;;;;5033254;28;20033;-73
2020/12/16 10:39:02;;;;;;;0.10;0.10;;;;;;;;;;5048540;28;20084;-74
2020/12/16 10:41:27;;;;;;;0.10;0.10;;;;;;;;;;5033950;28;20460;-73
2020/12/16 10:43:52;;;;;;;0.10;0.10;;;;;;;;;;5016439;28;20098;-73
2020/12/16 10:46:18;;;;;;;0.10;0.10;;;;;;;;;;5045716;28;20033;-74
2020/12/16 10:48:44;;;;;;;0.10;0.10;;;;;;;;;;5054076;28;20061;-73
2020/12/16 10:51:09;;;;;;;0.10;0.10;;;;;;;;;;5037091;28;20143;-74
2020/12/16 10:53:35;;;;;;;0.10;0.10;;;;;;;;;;5059279;28;20056;-74
2020/12/16 10:56:02;;;;;;;0.10;0.10;;;;;;;;;;5042077;28;20370;-74
2020/12/16 10:58:28;;;;;;;0.10;0.10;;;;;;;;;;5041363;28;20029;-74
2020/12/16 11:00:53;;;;;;;0.10;0.10;;;;;;;;;;5044003;28;20028;-74
2020/12/16 11:03:19;;;;;;;0.10;0.10;;;;;;;;;;5044053;28;20032;-74
2020/12/16 11:05:44;;;;;;;0.10;0.10;;;;;;;;;;5050932;28;20112;-75
2020/12/16 11:08:10;;;;;;;0.10;0.10;;;;;;;;;;5049426;28;20029;-75
2020/12/16 11:10:35;;;;;;;0.10;0.10;;;;;;;;;;5033854;28;20087;-75
2020/12/16 11:13:02;;;;;;;0.10;0.10;;;;;;;;;;5031297;28;20354;-75
2020/12/16 11:15:28;;;;;;;0.10;0.10;;;;;;;;;;5037994;28;20029;-75
2020/12/16 11:17:53;;;;;;;0.10;0.10;;;;;;;;;;5054730;28;20031;-75
2020/12/16 11:20:19;;;;;;;0.10;0.10;;;;;;;;;;5040843;28;20025;-76
2020/12/16 11:22:44;;;;;;;0.00;0.00;;;;;;;;;;5030313;28;20030;-75
2020/12/16 11:25:09;;;;;;;0.10;0.10;;;;;;;;;;5052464;28;20035;-75
2020/12/16 11:27:35;;;;;;;0.10;0.10;;;;;;;;;;5046373;28;20116;-75
2020/12/16 11:30:00;;;;;;;0.08;0.08;;;;;;;;;;5037429;28;20117;-75
2020/12/16 11:32:25;;;;;;;0.10;0.10;;;;;;;;;;5037636;28;20029;-72
2020/12/16 11:34:50;;;;;;;0.00;0.00;;;;;;;;;;5037924;28;20116;-73
2020/12/16 11:37:15;;;;;;;0.10;0.10;;;;;;;;;;5034274;28;20740;-73
2020/12/16 11:39:44;;;;;;;0.10;0.10;;;;;;;;;;5018086;28;20417;-74
2020/12/16 11:42:09;;;;;;;0.10;0.10;;;;;;;;;;5017954;28;20097;-74
2020/12/16 11:44:35;;;;;;;0.00;0.00;;;;;;;;;;5044741;28;20114;-73
2020/12/16 11:47:02;;;;;;;0.00;0.00;;;;;;;;;;5053753;28;20036;-74
2020/12/16 11:49:27;;;;;;;0.00;0.00;;;;;;;;;;5033116;28;20131;-73
2020/12/16 11:51:53;;;;;;;0.10;0.10;;;;;;;;;;5034064;28;20072;-74
2020/12/16 11:54:18;;;;;;;0.00;0.00;;;;;;;;;;5014431;28;20391;-74
2020/12/16 11:56:43;;;;;;;0.00;0.00;;;;;;;;;;4981396;28;20026;-74
2020/12/16 11:59:09;;;;;;;0.00;0.00;;;;;;;;;;4992845;28;20025;-74
2020/12/16 12:01:34;;;;;;;0.00;0.00;;;;;;;;;;5030234;28;20538;-73
2020/12/16 12:04:00;;;;;;;0.00;0.00;;;;;;;;;;5010320;28;20111;-74
2020/12/16 12:06:27;;;;;;;0.08;0.08;;;;;;;;;;4999864;28;20090;-74
2020/12/16 12:08:52;;;;;;;0.00;0.00;;;;;;;;;;5021068;28;20028;-75
2020/12/16 12:11:17;;;;;;;0.00;0.00;;;;;;;;;;4983858;28;20367;-75
2020/12/16 12:13:43;;;;;;;0.10;0.10;;;;;;;;;;4992519;28;20103;-75
2020/12/16 12:16:11;;;;;;;0.10;0.10;;;;;;;;;;5010692;28;20493;-75
2020/12/16 12:18:39;;;;;;;0.00;0.00;;;;;;;;;;5000204;28;20482;-75
2020/12/16 12:21:04;;;;;;;0.00;0.00;;;;;;;;;;5009877;28;20036;-76
2020/12/16 12:23:29;;;;;;;0.10;0.10;;;;;;;;;;5016699;28;20033;-75
2020/12/16 12:25:54;;;;;;;0.00;0.00;;;;;;;;;;5000214;28;20021;-75
2020/12/16 12:28:20;;;;;;;0.00;0.00;;;;;;;;;;5004460;28;20041;-75
2020/12/16 12:30:45;;;;;;;0.00;0.00;;;;;;;;;;4980531;28;20030;-74
2020/12/16 12:33:11;;;;;;;0.00;0.00;;;;;;;;;;5007505;28;20038;-75
2020/12/16 12:35:36;;;;;;;0.00;0.00;;;;;;;;;;4996661;28;20026;-75
2020/12/16 12:38:01;;;;;;;0.00;0.00;;;;;;;;;;4996564;28;20157;-75
2020/12/16 12:40:27;;;;;;;0.00;0.00;;;;;;;;;;4999598;28;20017;-75
2020/12/16 12:42:52;;;;;;;0.00;0.00;;;;;;;;;;4999656;28;20059;-75
2020/12/16 12:45:17;;;;;;;0.03;0.03;;;;;;;;;;4999498;28;20025;-75
2020/12/16 12:47:43;;;;;;;0.00;0.00;;;;;;;;;;5014881;28;20103;-75
2020/12/16 12:50:08;;;;;;;0.08;0.08;;;;;;;;;;5003763;28;20033;-74
2020/12/16 12:52:34;;;;;;;0.10;0.10;;;;;;;;;;5008182;28;20094;-74
2020/12/16 12:54:59;;;;;;;0.00;0.00;;;;;;;;;;5055735;28;20033;-74
2020/12/16 12:57:25;;;;;;;0.10;0.10;;;;;;;;;;5065575;28;20093;-74
2020/12/16 12:59:51;;;;;;;0.10;0.10;;;;;;;;;;5035495;28;20029;-74
2020/12/16 13:02:16;;;;;;;0.00;0.00;;;;;;;;;;5059264;28;20040;-75
2020/12/16 13:04:41;;;;;;;0.10;0.10;;;;;;;;;;5055263;28;20064;-73
2020/12/16 13:07:06;;;;;;;0.00;0.00;;;;;;;;;;5039171;28;20029;-74
2020/12/16 13:09:32;;;;;;;0.10;0.10;;;;;;;;;;5044142;28;20022;-75
2020/12/16 13:11:57;;;;;;;0.10;0.10;;;;;;;;;;5031653;28;20033;-75
2020/12/16 13:14:23;;;;;;;0.10;0.10;;;;;;;;;;5031346;28;20396;-74
2020/12/16 13:16:48;;;;;;;0.10;0.10;;;;;;;;;;5037921;28;20023;-72
2020/12/16 13:19:17;;;;;;;0.03;0.03;;;;;;;;;;5021652;28;20074;-71
2020/12/16 13:21:43;;;;;;;0.10;0.10;;;;;;;;;;5032505;28;20083;-71
2020/12/16 13:24:08;;;;;;;0.10;0.10;;;;;;;;;;5050217;28;20504;-71
2020/12/16 13:26:33;;;;;;;0.00;0.00;;;;;;;;;;5053661;28;20021;-71
2020/12/16 13:28:59;;;;;;;0.10;0.10;;;;;;;;;;5052315;28;20033;-72
2020/12/16 13:31:24;;;;;;;0.10;0.10;;;;;;;;;;5036513;28;20045;-73
2020/12/16 13:33:49;;;;;;;0.10;0.10;;;;;;;;;;5052059;28;20029;-75
2020/12/16 13:36:15;;;;;;;0.10;0.10;;;;;;;;;;5034591;28;20047;-74
2020/12/16 13:38:40;;;;;;;0.10;0.10;;;;;;;;;;5035094;28;20499;-74
2020/12/16 13:41:06;;;;;;;0.08;0.08;;;;;;;;;;5052085;28;20494;-73
2020/12/16 13:43:31;;;;;;;0.10;0.10;;;;;;;;;;5031747;28;20064;-73
2020/12/16 13:45:57;;;;;;;0.10;0.10;;;;;;;;;;5032475;28;20061;-74
2020/12/16 13:48:23;;;;;;;0.00;0.00;;;;;;;;;;5021825;28;20495;-74
2020/12/16 13:50:48;;;;;;;0.10;0.10;;;;;;;;;;5033267;28;20445;-74
2020/12/16 13:53:13;;;;;;;0.10;0.10;;;;;;;;;;5031400;28;20045;-72
2020/12/16 13:55:39;;;;;;;0.10;0.10;;;;;;;;;;5035897;28;20101;-74
2020/12/16 13:58:04;;;;;;;0.10;0.10;;;;;;;;;;5054082;28;20474;-75
2020/12/16 14:00:30;;;;;;;0.10;0.10;;;;;;;;;;5053203;28;20017;-74
2020/12/16 14:02:55;;;;;;;0.10;0.10;;;;;;;;;;5035200;28;20032;-75
2020/12/16 14:05:20;;;;;;;0.10;0.10;;;;;;;;;;5041962;28;20115;-75
2020/12/16 14:07:45;;;;;;;0.10;0.10;;;;;;;;;;5026584;28;20067;-75
2020/12/16 14:10:11;;;;;;;0.10;0.10;;;;;;;;;;5045062;28;20379;-75
2020/12/16 14:12:36;;;;;;;0.10;0.10;;;;;;;;;;5039885;28;20041;-76
2020/12/16 14:15:02;;;;;;;0.10;0.10;;;;;;;;;;5027941;28;20037;-75
2020/12/16 14:17:27;;;;;;;0.00;0.00;;;;;;;;;;5039463;28;20047;-75
2020/12/16 14:19:54;;;;;;;0.00;0.00;;;;;;;;;;5043178;28;20029;-75
2020/12/16 14:22:19;;;;;;;0.10;0.10;;;;;;;;;;5048620;28;20040;-75
2020/12/16 14:24:48;;;;;;;0.10;0.10;;;;;;;;;;5049243;28;20033;-75
2020/12/16 14:27:13;;;;;;;0.10;0.10;;;;;;;;;;5028499;28;20032;-74
2020/12/16 14:29:38;;;;;;;0.10;0.10;;;;;;;;;;5049811;28;20031;-75
2020/12/16 14:32:04;;;;;;;0.10;0.10;;;;;;;;;;5041221;28;20037;-75
2020/12/16 14:34:29;;;;;;;0.10;0.10;;;;;;;;;;5029863;28;20707;-75
2020/12/16 14:36:54;;;;;;;0.10;0.10;;;;;;;;;;5043351;28;20033;-75
2020/12/16 14:39:23;;;;;;;0.10;0.10;;;;;;;;;;5026773;28;20736;-76
2020/12/16 14:41:56;;;;;;;0.00;0.00;;;;;;;;;;5046054;28;20033;-75
2020/12/16 14:44:21;;;;;;;0.08;0.08;;;;;;;;;;5041897;28;20036;-75
2020/12/16 14:46:47;;;;;;;0.10;0.10;;;;;;;;;;5041294;28;20033;-73
2020/12/16 14:49:13;;;;;;;0.10;0.10;;;;;;;;;;5023655;28;20034;-75
2020/12/16 14:51:39;;;;;;;0.10;0.10;;;;;;;;;;5045923;28;20031;-75
2020/12/16 14:54:04;;;;;;;0.17;0.10;;;;;;;;;;5033593;28;20053;-75